Canaveral Natl Seashore, Florida
Current Conditions -  °F | °C
As of 5:03 AM on Wednesday 26 Nov 2014 (Local Time) from KTTS Reporting Station
Drizzle Drizzle  
Wind Chill: 70°   Ceiling: Unl
Heat Index: 70°   Visibility: 10mi
Dew Point: 68°   Wind: 14mph
Humidity: 94%   Direction: 200°SSW
Pressure: 29.88"   Gusts: 21mph
Location:  28.75°N, 80.75°W
Report Text: KTTS 261003Z AUTO 20012G18KT 10SM -DZ FEW029 SCT036 21/20 A2988 RMK AO2 VISNO RWY33 CHINO RWY33 $
Loading
Personal Weather Stations






























Interactive Weather Map New forecast layout! Learn more

10-Day Weather Forecast

Advertisements
Track Severe Weather on mobile